sensor_id;sensor_type;location;lat;lon;timestamp;temperature;humidity
45319;DHT22;31057;48.498;32.260;2022-11-25T00:01:19;7.30;99.90
45319;DHT22;31057;48.498;32.260;2022-11-25T00:03:21;7.30;99.90
45319;DHT22;31057;48.498;32.260;2022-11-25T02:16:23;7.20;99.90
45319;DHT22;31057;48.498;32.260;2022-11-25T02:18:24;7.00;99.90
45319;DHT22;31057;48.498;32.260;2022-11-25T02:20:27;7.00;99.90
45319;DHT22;31057;48.498;32.260;2022-11-25T02:24:49;6.90;99.90
45319;DHT22;31057;48.498;32.260;2022-11-25T02:26:53;6.90;99.90
45319;DHT22;31057;48.498;32.260;2022-11-25T02:28:56;6.90;99.90
45319;DHT22;31057;48.498;32.260;2022-11-25T02:30:58;6.90;99.90
45319;DHT22;31057;48.498;32.260;2022-11-25T02:33:01;6.90;99.90
45319;DHT22;31057;48.498;32.260;2022-11-25T02:37:22;6.80;99.90
45319;DHT22;31057;48.498;32.260;2022-11-25T02:39:25;6.80;99.90
45319;DHT22;31057;48.498;32.260;2022-11-25T02:41:44;6.70;99.90
45319;DHT22;31057;48.498;32.260;2022-11-25T02:43:47;6.70;99.90
45319;DHT22;31057;48.498;32.260;2022-11-25T02:45:55;6.70;99.90
45319;DHT22;31057;48.498;32.260;2022-11-25T02:47:57;6.60;99.90
45319;DHT22;31057;48.498;32.260;2022-11-25T02:49:59;6.70;99.90
45319;DHT22;31057;48.498;32.260;2022-11-25T02:52:01;6.60;99.90
45319;DHT22;31057;48.498;32.260;2022-11-25T02:54:03;6.70;99.90
45319;DHT22;31057;48.498;32.260;2022-11-25T02:56:06;6.70;99.90
45319;DHT22;31057;48.498;32.260;2022-11-25T02:58:08;6.60;99.90
45319;DHT22;31057;48.498;32.260;2022-11-25T03:00:10;6.60;99.90
45319;DHT22;31057;48.498;32.260;2022-11-25T03:02:12;6.60;99.90
45319;DHT22;31057;48.498;32.260;2022-11-25T03:04:14;6.50;99.90
45319;DHT22;31057;48.498;32.260;2022-11-25T03:06:16;6.50;99.90
45319;DHT22;31057;48.498;32.260;2022-11-25T03:08:18;6.60;99.90
45319;DHT22;31057;48.498;32.260;2022-11-25T03:10:19;6.50;99.90
45319;DHT22;31057;48.498;32.260;2022-11-25T03:12:22;6.40;99.90
45319;DHT22;31057;48.498;32.260;2022-11-25T03:14:24;6.50;99.90
45319;DHT22;31057;48.498;32.260;2022-11-25T03:16:26;6.40;99.90
45319;DHT22;31057;48.498;32.260;2022-11-25T03:18:28;6.40;99.90
45319;DHT22;31057;48.498;32.260;2022-11-25T03:20:30;6.40;99.90
45319;DHT22;31057;48.498;32.260;2022-11-25T03:22:32;6.50;99.90
45319;DHT22;31057;48.498;32.260;2022-11-25T03:24:33;6.40;99.90
45319;DHT22;31057;48.498;32.260;2022-11-25T03:26:36;6.40;99.90
45319;DHT22;31057;48.498;32.260;2022-11-25T03:28:38;6.40;99.90
45319;DHT22;31057;48.498;32.260;2022-11-25T03:30:40;6.40;99.90
45319;DHT22;31057;48.498;32.260;2022-11-25T03:32:44;6.40;99.90
45319;DHT22;31057;48.498;32.260;2022-11-25T03:34:46;6.50;99.90
45319;DHT22;31057;48.498;32.260;2022-11-25T03:36:47;6.70;99.90
45319;DHT22;31057;48.498;32.260;2022-11-25T03:38:49;6.50;99.90
45319;DHT22;31057;48.498;32.260;2022-11-25T03:40:51;6.40;99.90
45319;DHT22;31057;48.498;32.260;2022-11-25T03:42:53;6.30;99.90
45319;DHT22;31057;48.498;32.260;2022-11-25T03:44:55;6.30;99.90
45319;DHT22;31057;48.498;32.260;2022-11-25T03:46:57;6.30;99.90
45319;DHT22;31057;48.498;32.260;2022-11-25T03:48:59;6.30;99.90
45319;DHT22;31057;48.498;32.260;2022-11-25T03:51:01;6.30;99.90
45319;DHT22;31057;48.498;32.260;2022-11-25T03:53:02;6.50;99.90
45319;DHT22;31057;48.498;32.260;2022-11-25T03:55:05;6.30;99.90
45319;DHT22;31057;48.498;32.260;2022-11-25T03:57:07;6.30;99.90
45319;DHT22;31057;48.498;32.260;2022-11-25T03:59:09;6.30;99.90
45319;DHT22;31057;48.498;32.260;2022-11-25T04:01:11;6.30;99.90
45319;DHT22;31057;48.498;32.260;2022-11-25T04:03:13;6.30;99.90
45319;DHT22;31057;48.498;32.260;2022-11-25T04:05:15;6.30;99.90
45319;DHT22;31057;48.498;32.260;2022-11-25T04:07:17;6.30;99.90
45319;DHT22;31057;48.498;32.260;2022-11-25T04:09:19;6.20;99.90
45319;DHT22;31057;48.498;32.260;2022-11-25T04:11:21;6.20;99.90
45319;DHT22;31057;48.498;32.260;2022-11-25T04:13:23;6.30;99.90
45319;DHT22;31057;48.498;32.260;2022-11-25T04:15:24;6.30;99.90
45319;DHT22;31057;48.498;32.260;2022-11-25T04:17:26;6.20;99.90
45319;DHT22;31057;48.498;32.260;2022-11-25T04:19:28;6.30;99.90
45319;DHT22;31057;48.498;32.260;2022-11-25T04:21:30;6.30;99.90
45319;DHT22;31057;48.498;32.260;2022-11-25T04:23:32;6.30;99.90
45319;DHT22;31057;48.498;32.260;2022-11-25T04:25:35;6.20;99.90
45319;DHT22;31057;48.498;32.260;2022-11-25T04:27:37;6.30;99.90
45319;DHT22;31057;48.498;32.260;2022-11-25T04:29:39;6.30;99.90
45319;DHT22;31057;48.498;32.260;2022-11-25T04:31:41;6.30;99.90
45319;DHT22;31057;48.498;32.260;2022-11-25T04:33:43;6.30;99.90
45319;DHT22;31057;48.498;32.260;2022-11-25T04:35:51;6.20;99.90
45319;DHT22;31057;48.498;32.260;2022-11-25T04:37:53;6.30;99.90
45319;DHT22;31057;48.498;32.260;2022-11-25T04:39:55;6.20;99.90
45319;DHT22;31057;48.498;32.260;2022-11-25T04:41:57;6.30;99.90
45319;DHT22;31057;48.498;32.260;2022-11-25T04:44:17;6.30;99.90
45319;DHT22;31057;48.498;32.260;2022-11-25T04:46:23;6.30;99.90
45319;DHT22;31057;48.498;32.260;2022-11-25T04:48:26;6.30;99.90
45319;DHT22;31057;48.498;32.260;2022-11-25T04:50:29;6.20;99.90
45319;DHT22;31057;48.498;32.260;2022-11-25T04:52:32;6.20;99.90
45319;DHT22;31057;48.498;32.260;2022-11-25T04:54:34;6.30;99.90
45319;DHT22;31057;48.498;32.260;2022-11-25T04:56:36;6.30;99.90
45319;DHT22;31057;48.498;32.260;2022-11-25T04:58:38;6.30;99.90
45319;DHT22;31057;48.498;32.260;2022-11-25T05:00:58;6.30;99.90
45319;DHT22;31057;48.498;32.260;2022-11-25T05:03:00;6.20;99.90
45319;DHT22;31057;48.498;32.260;2022-11-25T05:05:02;6.30;99.90
45319;DHT22;31057;48.498;32.260;2022-11-25T05:07:04;6.20;99.90
45319;DHT22;31057;48.498;32.260;2022-11-25T05:09:06;6.20;99.90
45319;DHT22;31057;48.498;32.260;2022-11-25T05:11:11;6.20;99.90
45319;DHT22;31057;48.498;32.260;2022-11-25T05:13:13;6.30;99.90
45319;DHT22;31057;48.498;32.260;2022-11-25T05:15:15;6.20;99.90
45319;DHT22;31057;48.498;32.260;2022-11-25T05:17:19;6.20;99.90
45319;DHT22;31057;48.498;32.260;2022-11-25T05:19:21;6.10;99.90
45319;DHT22;31057;48.498;32.260;2022-11-25T05:21:23;6.10;99.90
45319;DHT22;31057;48.498;32.260;2022-11-25T05:23:25;6.10;99.90
45319;DHT22;31057;48.498;32.260;2022-11-25T05:25:27;6.10;99.90
45319;DHT22;31057;48.498;32.260;2022-11-25T05:27:29;6.00;99.90
45319;DHT22;31057;48.498;32.260;2022-11-25T05:29:31;6.00;99.90
45319;DHT22;31057;48.498;32.260;2022-11-25T05:31:32;6.00;99.90
45319;DHT22;31057;48.498;32.260;2022-11-25T05:33:34;6.00;99.90
45319;DHT22;31057;48.498;32.260;2022-11-25T05:35:36;6.00;99.90
45319;DHT22;31057;48.498;32.260;2022-11-25T05:37:38;6.10;99.90
45319;DHT22;31057;48.498;32.260;2022-11-25T05:39:40;5.90;99.90
45319;DHT22;31057;48.498;32.260;2022-11-25T05:41:42;6.00;99.90
45319;DHT22;31057;48.498;32.260;2022-11-25T05:43:44;6.00;99.90
45319;DHT22;31057;48.498;32.260;2022-11-25T05:45:47;6.00;99.90
45319;DHT22;31057;48.498;32.260;2022-11-25T05:47:49;6.10;99.90
45319;DHT22;31057;48.498;32.260;2022-11-25T05:49:51;6.00;99.90
45319;DHT22;31057;48.498;32.260;2022-11-25T05:51:53;6.00;99.90
45319;DHT22;31057;48.498;32.260;2022-11-25T05:53:55;6.00;99.90
45319;DHT22;31057;48.498;32.260;2022-11-25T05:56:00;6.10;99.90
45319;DHT22;31057;48.498;32.260;2022-11-25T05:58:02;6.10;99.90
45319;DHT22;31057;48.498;32.260;2022-11-25T06:00:07;6.00;99.90
45319;DHT22;31057;48.498;32.260;2022-11-25T06:02:10;6.10;99.90
45319;DHT22;31057;48.498;32.260;2022-11-25T06:04:12;6.00;99.90
45319;DHT22;31057;48.498;32.260;2022-11-25T08:15:05;6.20;99.90
45319;DHT22;31057;48.498;32.260;2022-11-25T08:17:07;5.90;99.90
45319;DHT22;31057;48.498;32.260;2022-11-25T08:19:13;6.00;99.90
45319;DHT22;31057;48.498;32.260;2022-11-25T08:21:16;6.00;99.90
45319;DHT22;31057;48.498;32.260;2022-11-25T08:23:18;6.00;99.90
45319;DHT22;31057;48.498;32.260;2022-11-25T08:25:20;6.00;99.90
45319;DHT22;31057;48.498;32.260;2022-11-25T08:27:22;6.00;99.90
45319;DHT22;31057;48.498;32.260;2022-11-25T08:29:23;6.00;99.90
45319;DHT22;31057;48.498;32.260;2022-11-25T08:31:31;6.00;99.90
45319;DHT22;31057;48.498;32.260;2022-11-25T08:33:34;6.00;99.90
45319;DHT22;31057;48.498;32.260;2022-11-25T08:35:37;6.00;99.90
45319;DHT22;31057;48.498;32.260;2022-11-25T08:37:39;5.90;99.90
45319;DHT22;31057;48.498;32.260;2022-11-25T08:39:41;5.90;99.90
45319;DHT22;31057;48.498;32.260;2022-11-25T08:42:02;6.00;99.90
45319;DHT22;31057;48.498;32.260;2022-11-25T08:44:06;6.00;99.90
45319;DHT22;31057;48.498;32.260;2022-11-25T08:46:11;6.00;99.90
45319;DHT22;31057;48.498;32.260;2022-11-25T08:48:15;6.00;99.90
45319;DHT22;31057;48.498;32.260;2022-11-25T08:50:17;6.00;99.90
45319;DHT22;31057;48.498;32.260;2022-11-25T08:52:20;6.00;99.90
45319;DHT22;31057;48.498;32.260;2022-11-25T08:54:22;6.00;99.90
45319;DHT22;31057;48.498;32.260;2022-11-25T08:56:24;6.00;99.90
45319;DHT22;31057;48.498;32.260;2022-11-25T08:58:27;5.90;99.90
45319;DHT22;31057;48.498;32.260;2022-11-25T09:00:29;5.90;99.90
45319;DHT22;31057;48.498;32.260;2022-11-25T09:02:31;6.00;99.90
45319;DHT22;31057;48.498;32.260;2022-11-25T09:04:33;5.90;99.90
45319;DHT22;31057;48.498;32.260;2022-11-25T09:06:35;6.00;99.90
45319;DHT22;31057;48.498;32.260;2022-11-25T09:08:38;6.00;99.90
45319;DHT22;31057;48.498;32.260;2022-11-25T09:10:40;5.90;99.90
45319;DHT22;31057;48.498;32.260;2022-11-25T09:12:42;6.00;99.90
45319;DHT22;31057;48.498;32.260;2022-11-25T09:14:44;6.00;99.90
45319;DHT22;31057;48.498;32.260;2022-11-25T09:16:46;6.00;99.90
45319;DHT22;31057;48.498;32.260;2022-11-25T09:18:48;6.00;99.90
45319;DHT22;31057;48.498;32.260;2022-11-25T09:20:57;5.90;99.90
45319;DHT22;31057;48.498;32.260;2022-11-25T09:23:00;5.90;99.90
45319;DHT22;31057;48.498;32.260;2022-11-25T09:25:03;6.00;99.90
45319;DHT22;31057;48.498;32.260;2022-11-25T09:27:04;6.00;99.90
45319;DHT22;31057;48.498;32.260;2022-11-25T09:29:07;6.00;99.90
45319;DHT22;31057;48.498;32.260;2022-11-25T09:31:09;6.00;99.90
45319;DHT22;31057;48.498;32.260;2022-11-25T09:33:11;6.10;99.90
45319;DHT22;31057;48.498;32.260;2022-11-25T09:35:13;6.00;99.90
45319;DHT22;31057;48.498;32.260;2022-11-25T09:37:14;6.00;99.90
45319;DHT22;31057;48.498;32.260;2022-11-25T09:39:18;5.90;99.90
45319;DHT22;31057;48.498;32.260;2022-11-25T09:44:17;5.90;99.90
45319;DHT22;31057;48.498;32.260;2022-11-25T09:53:41;5.80;99.90
45319;DHT22;31057;48.498;32.260;2022-11-25T09:55:45;5.80;99.90
45319;DHT22;31057;48.498;32.260;2022-11-25T10:02:28;5.80;99.90
45319;DHT22;31057;48.498;32.260;2022-11-25T10:04:51;5.70;99.90
45319;DHT22;31057;48.498;32.260;2022-11-25T10:06:58;5.70;99.90
45319;DHT22;31057;48.498;32.260;2022-11-25T10:09:12;5.70;99.90
45319;DHT22;31057;48.498;32.260;2022-11-25T10:11:24;5.70;99.90
45319;DHT22;31057;48.498;32.260;2022-11-25T10:13:46;5.70;99.90
45319;DHT22;31057;48.498;32.260;2022-11-25T10:15:49;5.70;99.90
45319;DHT22;31057;48.498;32.260;2022-11-25T10:17:56;5.60;99.90
45319;DHT22;31057;48.498;32.260;2022-11-25T10:20:12;5.60;99.90
45319;DHT22;31057;48.498;32.260;2022-11-25T10:22:20;5.50;99.90
45319;DHT22;31057;48.498;32.260;2022-11-25T10:24:24;5.50;99.90
45319;DHT22;31057;48.498;32.260;2022-11-25T10:26:30;5.50;99.90
45319;DHT22;31057;48.498;32.260;2022-11-25T10:28:36;5.50;99.90
45319;DHT22;31057;48.498;32.260;2022-11-25T10:33:30;5.50;99.90
45319;DHT22;31057;48.498;32.260;2022-11-25T10:35:40;5.40;99.90
45319;DHT22;31057;48.498;32.260;2022-11-25T10:37:44;5.40;99.90
45319;DHT22;31057;48.498;32.260;2022-11-25T10:39:48;5.40;99.90
45319;DHT22;31057;48.498;32.260;2022-11-25T10:42:22;5.30;99.90
45319;DHT22;31057;48.498;32.260;2022-11-25T10:46:42;5.40;99.90
45319;DHT22;31057;48.498;32.260;2022-11-25T10:51:46;5.30;99.90
45319;DHT22;31057;48.498;32.260;2022-11-25T10:54:10;5.30;99.90
45319;DHT22;31057;48.498;32.260;2022-11-25T10:56:17;5.10;99.90
45319;DHT22;31057;48.498;32.260;2022-11-25T11:00:36;5.20;99.90
45319;DHT22;31057;48.498;32.260;2022-11-25T11:02:39;5.20;99.90
45319;DHT22;31057;48.498;32.260;2022-11-25T11:07:07;5.20;99.90
45319;DHT22;31057;48.498;32.260;2022-11-25T11:09:42;5.10;99.90
45319;DHT22;31057;48.498;32.260;2022-11-25T11:11:47;5.00;99.90
45319;DHT22;31057;48.498;32.260;2022-11-25T11:14:10;5.20;99.90
45319;DHT22;31057;48.498;32.260;2022-11-25T11:16:42;5.10;99.90
45319;DHT22;31057;48.498;32.260;2022-11-25T11:18:46;5.10;99.90
45319;DHT22;31057;48.498;32.260;2022-11-25T11:20:50;5.10;99.90
45319;DHT22;31057;48.498;32.260;2022-11-25T11:23:04;4.70;99.90
45319;DHT22;31057;48.498;32.260;2022-11-25T11:25:33;4.80;99.90
45319;DHT22;31057;48.498;32.260;2022-11-25T11:27:36;4.70;99.90
45319;DHT22;31057;48.498;32.260;2022-11-25T11:29:38;4.90;99.90
45319;DHT22;31057;48.498;32.260;2022-11-25T11:31:48;5.20;99.90
45319;DHT22;31057;48.498;32.260;2022-11-25T11:38:55;5.30;99.90
45319;DHT22;31057;48.498;32.260;2022-11-25T11:43:45;4.70;99.90
45319;DHT22;31057;48.498;32.260;2022-11-25T11:48:38;5.00;99.90
45319;DHT22;31057;48.498;32.260;2022-11-25T11:51:08;4.50;99.90
45319;DHT22;31057;48.498;32.260;2022-11-25T12:00:20;4.90;99.90
45319;DHT22;31057;48.498;32.260;2022-11-25T12:04:44;4.40;99.90
45319;DHT22;31057;48.498;32.260;2022-11-25T12:07:20;4.40;99.90
45319;DHT22;31057;48.498;32.260;2022-11-25T12:09:24;5.00;99.90
45319;DHT22;31057;48.498;32.260;2022-11-25T14:53:55;4.90;99.90
45319;DHT22;31057;48.498;32.260;2022-11-25T14:56:00;4.80;99.90
45319;DHT22;31057;48.498;32.260;2022-11-25T14:58:02;4.50;99.90
45319;DHT22;31057;48.498;32.260;2022-11-25T15:00:12;5.60;99.90
45319;DHT22;31057;48.498;32.260;2022-11-25T15:02:24;4.50;99.90
45319;DHT22;31057;48.498;32.260;2022-11-25T15:04:30;6.00;99.90
45319;DHT22;31057;48.498;32.260;2022-11-25T15:06:36;4.80;99.90
45319;DHT22;31057;48.498;32.260;2022-11-25T15:08:43;5.50;99.90
45319;DHT22;31057;48.498;32.260;2022-11-25T15:10:55;5.80;99.90
45319;DHT22;31057;48.498;32.260;2022-11-25T15:12:58;6.20;99.90
45319;DHT22;31057;48.498;32.260;2022-11-25T15:15:01;10.30;99.90
45319;DHT22;31057;48.498;32.260;2022-11-25T15:17:21;10.90;99.90
45319;DHT22;31057;48.498;32.260;2022-11-25T15:19:26;10.00;99.90
45319;DHT22;31057;48.498;32.260;2022-11-25T15:21:39;10.00;99.90
45319;DHT22;31057;48.498;32.260;2022-11-25T15:24:03;10.00;99.90
45319;DHT22;31057;48.498;32.260;2022-11-25T15:26:38;10.80;99.90
45319;DHT22;31057;48.498;32.260;2022-11-25T15:28:40;10.00;99.90
45319;DHT22;31057;48.498;32.260;2022-11-25T15:30:57;10.40;99.90
45319;DHT22;31057;48.498;32.260;2022-11-25T15:32:59;10.00;99.90
45319;DHT22;31057;48.498;32.260;2022-11-25T15:35:04;9.70;99.90
45319;DHT22;31057;48.498;32.260;2022-11-25T15:37:10;10.20;99.90
45319;DHT22;31057;48.498;32.260;2022-11-25T15:39:30;10.30;99.90
45319;DHT22;31057;48.498;32.260;2022-11-25T15:41:33;9.30;99.90
45319;DHT22;31057;48.498;32.260;2022-11-25T15:43:37;9.90;99.90
45319;DHT22;31057;48.498;32.260;2022-11-25T15:45:44;9.60;99.90
45319;DHT22;31057;48.498;32.260;2022-11-25T15:47:47;8.70;99.90
45319;DHT22;31057;48.498;32.260;2022-11-25T15:52:18;9.20;99.90
45319;DHT22;31057;48.498;32.260;2022-11-25T15:54:25;8.60;99.90
45319;DHT22;31057;48.498;32.260;2022-11-25T15:56:32;8.70;99.90
45319;DHT22;31057;48.498;32.260;2022-11-25T15:58:35;7.70;99.90
45319;DHT22;31057;48.498;32.260;2022-11-25T16:00:37;8.10;99.90
45319;DHT22;31057;48.498;32.260;2022-11-25T18:13:35;7.10;99.90
45319;DHT22;31057;48.498;32.260;2022-11-25T18:15:39;7.10;99.90
45319;DHT22;31057;48.498;32.260;2022-11-25T18:17:41;6.60;99.90
45319;DHT22;31057;48.498;32.260;2022-11-25T18:19:43;7.20;99.90
45319;DHT22;31057;48.498;32.260;2022-11-25T18:21:52;6.80;99.90
45319;DHT22;31057;48.498;32.260;2022-11-25T18:23:54;6.60;99.90
45319;DHT22;31057;48.498;32.260;2022-11-25T18:25:59;7.20;99.90
45319;DHT22;31057;48.498;32.260;2022-11-25T18:28:03;6.90;99.90
45319;DHT22;31057;48.498;32.260;2022-11-25T18:30:09;6.70;99.90
45319;DHT22;31057;48.498;32.260;2022-11-25T18:32:20;6.50;99.90
45319;DHT22;31057;48.498;32.260;2022-11-25T18:34:25;6.60;99.90
45319;DHT22;31057;48.498;32.260;2022-11-25T18:36:28;6.60;99.90
45319;DHT22;31057;48.498;32.260;2022-11-25T18:38:30;7.00;99.90
45319;DHT22;31057;48.498;32.260;2022-11-25T18:40:34;6.70;99.90
45319;DHT22;31057;48.498;32.260;2022-11-25T18:42:37;7.10;99.90
45319;DHT22;31057;48.498;32.260;2022-11-25T18:44:38;6.70;99.90
45319;DHT22;31057;48.498;32.260;2022-11-25T18:46:44;7.10;99.90
45319;DHT22;31057;48.498;32.260;2022-11-25T18:48:46;7.10;99.90
45319;DHT22;31057;48.498;32.260;2022-11-25T18:50:49;6.60;99.90
45319;DHT22;31057;48.498;32.260;2022-11-25T18:52:52;7.10;99.90
45319;DHT22;31057;48.498;32.260;2022-11-25T18:54:54;6.70;99.90
45319;DHT22;31057;48.498;32.260;2022-11-25T18:56:56;7.00;99.90
45319;DHT22;31057;48.498;32.260;2022-11-25T18:58:58;7.10;99.90
45319;DHT22;31057;48.498;32.260;2022-11-25T19:01:04;7.00;99.90
45319;DHT22;31057;48.498;32.260;2022-11-25T19:03:19;7.00;99.90
45319;DHT22;31057;48.498;32.260;2022-11-25T19:05:30;6.70;99.90
45319;DHT22;31057;48.498;32.260;2022-11-25T19:07:32;6.60;99.90
45319;DHT22;31057;48.498;32.260;2022-11-25T19:09:34;7.10;99.90
45319;DHT22;31057;48.498;32.260;2022-11-25T19:11:43;7.10;99.90
45319;DHT22;31057;48.498;32.260;2022-11-25T19:13:47;7.20;99.90
45319;DHT22;31057;48.498;32.260;2022-11-25T19:15:51;7.20;99.90
45319;DHT22;31057;48.498;32.260;2022-11-25T19:17:59;6.90;99.90
45319;DHT22;31057;48.498;32.260;2022-11-25T19:20:01;7.00;99.90
45319;DHT22;31057;48.498;32.260;2022-11-25T19:22:11;7.20;99.90
45319;DHT22;31057;48.498;32.260;2022-11-25T19:24:16;7.00;99.90
45319;DHT22;31057;48.498;32.260;2022-11-25T19:26:25;6.50;99.90
45319;DHT22;31057;48.498;32.260;2022-11-25T19:28:29;7.10;99.90
45319;DHT22;31057;48.498;32.260;2022-11-25T19:30:32;7.10;99.90
45319;DHT22;31057;48.498;32.260;2022-11-25T19:32:37;7.20;99.90
45319;DHT22;31057;48.498;32.260;2022-11-25T19:34:41;7.20;99.90
45319;DHT22;31057;48.498;32.260;2022-11-25T19:36:45;7.20;99.90
45319;DHT22;31057;48.498;32.260;2022-11-25T19:38:52;7.20;99.90
45319;DHT22;31057;48.498;32.260;2022-11-25T19:40:55;6.60;99.90
45319;DHT22;31057;48.498;32.260;2022-11-25T19:42:58;7.20;99.90
45319;DHT22;31057;48.498;32.260;2022-11-25T19:45:02;6.60;99.90
45319;DHT22;31057;48.498;32.260;2022-11-25T19:47:04;6.80;99.90
45319;DHT22;31057;48.498;32.260;2022-11-25T19:49:17;7.10;99.90
45319;DHT22;31057;48.498;32.260;2022-11-25T19:51:21;6.60;99.90
45319;DHT22;31057;48.498;32.260;2022-11-25T19:53:25;6.60;99.90
45319;DHT22;31057;48.498;32.260;2022-11-25T19:55:34;7.10;99.90
45319;DHT22;31057;48.498;32.260;2022-11-25T19:57:36;7.10;99.90
45319;DHT22;31057;48.498;32.260;2022-11-25T19:59:38;6.90;99.90
45319;DHT22;31057;48.498;32.260;2022-11-25T22:00:59;6.40;99.90
45319;DHT22;31057;48.498;32.260;2022-11-25T22:03:04;6.40;99.90
45319;DHT22;31057;48.498;32.260;2022-11-25T22:05:13;6.70;99.90
45319;DHT22;31057;48.498;32.260;2022-11-25T22:07:15;6.80;99.90
45319;DHT22;31057;48.498;32.260;2022-11-25T22:09:18;6.50;99.90
45319;DHT22;31057;48.498;32.260;2022-11-25T22:11:34;6.80;99.90
45319;DHT22;31057;48.498;32.260;2022-11-25T22:13:37;6.80;99.90
45319;DHT22;31057;48.498;32.260;2022-11-25T22:15:39;6.80;99.90
45319;DHT22;31057;48.498;32.260;2022-11-25T22:17:41;6.30;99.90
45319;DHT22;31057;48.498;32.260;2022-11-25T22:19:44;6.40;99.90
45319;DHT22;31057;48.498;32.260;2022-11-25T22:21:46;6.40;99.90
45319;DHT22;31057;48.498;32.260;2022-11-25T22:23:48;6.30;99.90
45319;DHT22;31057;48.498;32.260;2022-11-25T22:25:50;6.90;99.90
45319;DHT22;31057;48.498;32.260;2022-11-25T22:27:53;6.80;99.90
45319;DHT22;31057;48.498;32.260;2022-11-25T22:29:55;6.90;99.90
45319;DHT22;31057;48.498;32.260;2022-11-25T22:31:57;6.40;99.90
45319;DHT22;31057;48.498;32.260;2022-11-25T22:33:58;7.10;99.90
45319;DHT22;31057;48.498;32.260;2022-11-25T22:36:01;6.50;99.90
45319;DHT22;31057;48.498;32.260;2022-11-25T22:38:11;6.50;99.90
45319;DHT22;31057;48.498;32.260;2022-11-25T22:40:14;6.70;99.90
45319;DHT22;31057;48.498;32.260;2022-11-25T22:42:26;6.70;99.90
45319;DHT22;31057;48.498;32.260;2022-11-25T22:44:46;7.10;99.90
45319;DHT22;31057;48.498;32.260;2022-11-25T22:46:49;6.80;99.90
45319;DHT22;31057;48.498;32.260;2022-11-25T22:48:51;6.90;99.90
45319;DHT22;31057;48.498;32.260;2022-11-25T22:50:53;6.90;99.90
45319;DHT22;31057;48.498;32.260;2022-11-25T22:52:55;6.90;99.90
45319;DHT22;31057;48.498;32.260;2022-11-25T22:57:22;7.00;99.90
45319;DHT22;31057;48.498;32.260;2022-11-25T22:59:24;7.20;99.90
45319;DHT22;31057;48.498;32.260;2022-11-25T23:01:26;7.70;99.90
45319;DHT22;31057;48.498;32.260;2022-11-25T23:03:28;7.50;99.90
45319;DHT22;31057;48.498;32.260;2022-11-25T23:05:32;7.30;99.90
45319;DHT22;31057;48.498;32.260;2022-11-25T23:07:35;7.70;99.90
45319;DHT22;31057;48.498;32.260;2022-11-25T23:09:37;7.60;99.90
45319;DHT22;31057;48.498;32.260;2022-11-25T23:11:38;7.30;99.90
45319;DHT22;31057;48.498;32.260;2022-11-25T23:13:40;7.60;99.90
45319;DHT22;31057;48.498;32.260;2022-11-25T23:16:02;7.60;99.90
45319;DHT22;31057;48.498;32.260;2022-11-25T23:18:09;7.70;99.90
45319;DHT22;31057;48.498;32.260;2022-11-25T23:20:37;7.50;99.90
45319;DHT22;31057;48.498;32.260;2022-11-25T23:22:40;8.00;99.90
45319;DHT22;31057;48.498;32.260;2022-11-25T23:24:45;7.90;99.90
45319;DHT22;31057;48.498;32.260;2022-11-25T23:26:47;7.70;99.90
45319;DHT22;31057;48.498;32.260;2022-11-25T23:28:49;8.00;99.90
45319;DHT22;31057;48.498;32.260;2022-11-25T23:30:55;8.00;99.90
45319;DHT22;31057;48.498;32.260;2022-11-25T23:32:58;8.10;99.90
45319;DHT22;31057;48.498;32.260;2022-11-25T23:35:00;8.00;99.90
45319;DHT22;31057;48.498;32.260;2022-11-25T23:37:01;7.80;99.90
45319;DHT22;31057;48.498;32.260;2022-11-25T23:39:03;7.80;99.90
45319;DHT22;31057;48.498;32.260;2022-11-25T23:41:07;8.30;99.90
45319;DHT22;31057;48.498;32.260;2022-11-25T23:43:13;8.30;99.90
45319;DHT22;31057;48.498;32.260;2022-11-25T23:45:19;8.20;99.90
45319;DHT22;31057;48.498;32.260;2022-11-25T23:47:21;7.70;99.90
45319;DHT22;31057;48.498;32.260;2022-11-25T23:49:30;8.20;99.90
45319;DHT22;31057;48.498;32.260;2022-11-25T23:51:34;7.80;99.90
45319;DHT22;31057;48.498;32.260;2022-11-25T23:53:38;8.30;99.90
45319;DHT22;31057;48.498;32.260;2022-11-25T23:55:40;8.30;99.90
45319;DHT22;31057;48.498;32.260;2022-11-25T23:57:44;8.40;99.90
45319;DHT22;31057;48.498;32.260;2022-11-25T23:59:48;8.30;99.90
